Time;durP1;ratioP1;P1;durP2;ratioP2;P2;SDS_P1;SDS_P2;PMS_P1;PMS_P2;Temp;Humidity;BMP_temperature;BMP_pressure;BME280_temperature;BME280_humidity;BME280_pressure;Samples;Min_cycle;Max_cycle;Signal;HPM_P1;HPM_P2
2023/01/17 00:00:39;;;;;;;0.20;0.20;;;;;;;;;;5076329;28;20313;-68
2023/01/17 00:03:07;;;;;;;0.20;0.20;;;;;;;;;;5086288;28;20278;-69
2023/01/17 00:11:02;;;;;;;0.47;0.47;;;;;;;;;;5075914;28;20252;-69
2023/01/17 00:13:29;;;;;;;0.40;0.40;;;;;;;;;;5086035;28;20297;-69
2023/01/17 00:15:55;;;;;;;0.20;0.20;;;;;;;;;;5075983;28;20261;-69
2023/01/17 00:18:21;;;;;;;0.20;0.20;;;;;;;;;;5085913;28;20272;-70
2023/01/17 00:26:18;;;;;;;0.20;0.20;;;;;;;;;;5075579;28;20246;-69
2023/01/17 01:35:36;;;;;;;0.20;0.20;;;;;;;;;;5074679;28;20324;-69
2023/01/17 01:38:03;;;;;;;0.20;0.20;;;;;;;;;;5084307;28;20210;-69
2023/01/17 01:40:30;;;;;;;0.20;0.20;;;;;;;;;;5074599;28;20262;-69
2023/01/17 01:42:58;;;;;;;0.20;0.20;;;;;;;;;;5084373;28;20556;-70
2023/01/17 01:45:26;;;;;;;0.20;0.20;;;;;;;;;;5074693;28;20555;-70
2023/01/17 01:47:54;;;;;;;0.20;0.20;;;;;;;;;;5084253;28;20213;-69
2023/01/17 01:50:21;;;;;;;0.20;0.20;;;;;;;;;;5074377;28;20206;-69
2023/01/17 01:52:49;;;;;;;0.20;0.20;;;;;;;;;;5084150;28;20235;-69
2023/01/17 01:55:17;;;;;;;0.20;0.20;;;;;;;;;;5074253;28;20227;-69
2023/01/17 01:57:47;;;;;;;0.20;0.20;;;;;;;;;;5083974;28;20271;-69
2023/01/17 02:00:15;;;;;;;0.60;0.30;;;;;;;;;;5074472;28;20234;-69
2023/01/17 02:02:42;;;;;;;0.20;0.20;;;;;;;;;;5083881;28;20460;-69
2023/01/17 02:05:09;;;;;;;0.20;0.20;;;;;;;;;;5074380;28;20225;-69
2023/01/17 02:07:38;;;;;;;0.20;0.20;;;;;;;;;;5082980;28;20249;-69
2023/01/17 02:10:05;;;;;;;0.20;0.20;;;;;;;;;;5084874;28;20426;-69
2023/01/17 02:12:31;;;;;;;0.30;0.30;;;;;;;;;;5073193;28;20309;-69
2023/01/17 02:14:59;;;;;;;0.20;0.20;;;;;;;;;;5084582;28;20250;-70
2023/01/17 02:17:30;;;;;;;0.20;0.20;;;;;;;;;;5073142;28;20239;-70
2023/01/17 02:20:21;;;;;;;0.20;0.20;;;;;;;;;;5084298;28;20262;-69
2023/01/17 02:23:01;;;;;;;0.23;0.23;;;;;;;;;;5084473;28;20264;-69
2023/01/17 02:25:41;;;;;;;0.20;0.20;;;;;;;;;;5073982;28;20488;-69
2023/01/17 02:28:15;;;;;;;0.20;0.20;;;;;;;;;;5083295;28;20249;-69
2023/01/17 02:30:45;;;;;;;0.20;0.20;;;;;;;;;;5073603;28;20268;-69
2023/01/17 02:33:22;;;;;;;0.53;0.30;;;;;;;;;;5083516;28;20282;-69
2023/01/17 02:35:54;;;;;;;0.20;0.20;;;;;;;;;;5073550;28;20246;-68
2023/01/17 02:38:30;;;;;;;0.30;0.30;;;;;;;;;;5083603;28;20212;-69
2023/01/17 02:41:00;;;;;;;0.20;0.20;;;;;;;;;;5073174;28;20264;-69
2023/01/17 02:43:27;;;;;;;0.30;0.30;;;;;;;;;;5083285;28;20202;-69
2023/01/17 02:45:54;;;;;;;0.20;0.20;;;;;;;;;;5073216;28;20558;-69
2023/01/17 02:48:22;;;;;;;0.30;0.30;;;;;;;;;;5083456;28;20291;-69
2023/01/17 02:51:01;;;;;;;0.20;0.20;;;;;;;;;;5073230;28;20316;-69
2023/01/17 02:53:30;;;;;;;0.20;0.20;;;;;;;;;;5083450;28;20485;-69
2023/01/17 02:56:00;;;;;;;0.20;0.20;;;;;;;;;;5073096;28;20291;-68
2023/01/17 02:58:42;;;;;;;0.20;0.20;;;;;;;;;;5083375;28;20243;-69
2023/01/17 03:01:14;;;;;;;0.23;0.23;;;;;;;;;;5069570;28;20317;-69
2023/01/17 03:03:46;;;;;;;0.20;0.20;;;;;;;;;;5083548;28;20230;-69
2023/01/17 03:06:15;;;;;;;0.20;0.20;;;;;;;;;;5072899;28;20599;-68
2023/01/17 03:08:43;;;;;;;0.20;0.20;;;;;;;;;;5083236;28;20212;-68
2023/01/17 03:11:10;;;;;;;0.20;0.20;;;;;;;;;;5072798;28;20257;-69
2023/01/17 03:13:37;;;;;;;0.30;0.30;;;;;;;;;;5083239;28;20240;-68
2023/01/17 03:16:05;;;;;;;0.20;0.20;;;;;;;;;;5072711;28;20305;-69
2023/01/17 03:18:33;;;;;;;0.20;0.20;;;;;;;;;;5082836;28;20205;-68
2023/01/17 03:20:59;;;;;;;0.20;0.20;;;;;;;;;;5072764;28;20305;-68
2023/01/17 03:23:26;;;;;;;0.20;0.20;;;;;;;;;;5083124;28;20272;-69
2023/01/17 03:25:52;;;;;;;0.17;0.17;;;;;;;;;;5072820;28;20516;-70
2023/01/17 03:28:18;;;;;;;0.20;0.20;;;;;;;;;;5082727;28;20481;-69
2023/01/17 03:30:45;;;;;;;0.20;0.20;;;;;;;;;;5072684;28;20485;-69
2023/01/17 03:33:11;;;;;;;0.30;0.30;;;;;;;;;;5082959;28;20192;-70
2023/01/17 03:35:39;;;;;;;0.20;0.20;;;;;;;;;;5072619;28;20307;-69
2023/01/17 03:38:05;;;;;;;0.30;0.30;;;;;;;;;;5082773;28;20513;-70
2023/01/17 03:40:32;;;;;;;0.20;0.20;;;;;;;;;;5072956;28;20596;-69
2023/01/17 03:42:58;;;;;;;0.20;0.20;;;;;;;;;;5082704;28;20206;-70
2023/01/17 03:45:24;;;;;;;0.20;0.20;;;;;;;;;;5073022;28;20208;-69
2023/01/17 03:47:51;;;;;;;0.30;0.30;;;;;;;;;;5082540;28;20280;-69
2023/01/17 03:50:17;;;;;;;0.20;0.20;;;;;;;;;;5072968;28;20206;-69
2023/01/17 03:52:45;;;;;;;0.20;0.20;;;;;;;;;;5082206;28;20244;-69
2023/01/17 03:55:11;;;;;;;0.20;0.20;;;;;;;;;;5072672;28;20221;-69
2023/01/17 03:57:38;;;;;;;0.20;0.20;;;;;;;;;;5082339;28;20277;-69
2023/01/17 04:00:05;;;;;;;0.20;0.20;;;;;;;;;;5083327;28;20210;-69
2023/01/17 04:02:31;;;;;;;0.20;0.20;;;;;;;;;;5071856;28;20253;-69
2023/01/17 04:04:57;;;;;;;0.20;0.20;;;;;;;;;;5083140;28;20238;-69
2023/01/17 04:07:24;;;;;;;0.20;0.20;;;;;;;;;;5071654;28;20244;-69
2023/01/17 04:09:51;;;;;;;0.20;0.20;;;;;;;;;;5083027;28;20213;-69
2023/01/17 04:12:18;;;;;;;0.20;0.20;;;;;;;;;;5071854;28;20313;-70
2023/01/17 04:14:44;;;;;;;0.20;0.20;;;;;;;;;;5082945;28;20297;-70
2023/01/17 04:17:11;;;;;;;0.30;0.30;;;;;;;;;;5071488;28;20258;-70
2023/01/17 04:19:38;;;;;;;0.20;0.20;;;;;;;;;;5083247;28;20410;-70
2023/01/17 04:22:04;;;;;;;0.20;0.20;;;;;;;;;;5071655;28;20242;-69
2023/01/17 04:24:31;;;;;;;0.27;0.27;;;;;;;;;;5082865;28;20271;-70
2023/01/17 04:26:59;;;;;;;0.20;0.20;;;;;;;;;;5071557;28;20469;-70
2023/01/17 04:29:25;;;;;;;0.20;0.20;;;;;;;;;;5084033;28;20213;-70
2023/01/17 04:31:51;;;;;;;0.20;0.20;;;;;;;;;;5075198;28;20248;-70
2023/01/17 04:34:18;;;;;;;0.20;0.20;;;;;;;;;;5086143;28;20222;-70
2023/01/17 04:36:44;;;;;;;0.20;0.20;;;;;;;;;;5075089;28;20258;-70
2023/01/17 04:39:10;;;;;;;0.47;0.47;;;;;;;;;;5086147;28;20278;-70
2023/01/17 04:41:37;;;;;;;0.20;0.20;;;;;;;;;;5075091;28;20260;-70
2023/01/17 04:44:05;;;;;;;0.20;0.20;;;;;;;;;;5085987;28;20202;-70
2023/01/17 04:46:31;;;;;;;0.30;0.30;;;;;;;;;;5075179;28;20245;-70
2023/01/17 04:48:59;;;;;;;0.20;0.20;;;;;;;;;;5085912;28;20308;-70
2023/01/17 04:51:25;;;;;;;0.20;0.20;;;;;;;;;;5074990;28;20265;-70
2023/01/17 04:53:52;;;;;;;0.53;0.53;;;;;;;;;;5085894;28;20553;-70
2023/01/17 04:56:18;;;;;;;0.23;0.23;;;;;;;;;;5075102;28;20237;-69
2023/01/17 04:58:44;;;;;;;0.20;0.20;;;;;;;;;;5085384;28;20204;-69
2023/01/17 05:01:12;;;;;;;0.20;0.20;;;;;;;;;;5075039;28;20494;-69
2023/01/17 05:03:38;;;;;;;0.20;0.20;;;;;;;;;;5085233;28;20234;-69
2023/01/17 05:06:05;;;;;;;0.20;0.20;;;;;;;;;;5074774;28;20254;-68
2023/01/17 05:08:32;;;;;;;0.20;0.20;;;;;;;;;;5085521;28;20237;-70
2023/01/17 05:10:58;;;;;;;0.20;0.20;;;;;;;;;;5074891;28;20266;-70
2023/01/17 05:13:24;;;;;;;0.20;0.20;;;;;;;;;;5085312;28;20206;-69
2023/01/17 05:15:51;;;;;;;0.40;0.40;;;;;;;;;;5074979;28;20268;-70
2023/01/17 05:18:19;;;;;;;0.30;0.30;;;;;;;;;;5084874;28;20207;-69
2023/01/17 05:20:45;;;;;;;0.50;0.50;;;;;;;;;;5075129;28;20241;-70
2023/01/17 05:23:12;;;;;;;0.20;0.20;;;;;;;;;;5085123;28;20212;-70
2023/01/17 05:25:43;;;;;;;0.30;0.30;;;;;;;;;;5075896;28;20508;-69
2023/01/17 05:28:10;;;;;;;0.20;0.20;;;;;;;;;;5084596;28;20214;-69
2023/01/17 05:30:36;;;;;;;0.20;0.20;;;;;;;;;;5074565;28;20245;-69
2023/01/17 05:33:02;;;;;;;0.20;0.20;;;;;;;;;;5084714;28;20206;-68
2023/01/17 05:35:32;;;;;;;0.30;0.30;;;;;;;;;;5074875;28;20321;-70
2023/01/17 05:37:58;;;;;;;0.40;0.40;;;;;;;;;;5084582;28;20209;-70
2023/01/17 05:40:27;;;;;;;0.20;0.20;;;;;;;;;;5073733;28;20288;-70
2023/01/17 05:42:54;;;;;;;0.33;0.33;;;;;;;;;;5084181;28;20237;-70
2023/01/17 05:45:21;;;;;;;0.30;0.30;;;;;;;;;;5074776;28;20295;-70
2023/01/17 05:47:49;;;;;;;0.20;0.20;;;;;;;;;;5084354;28;20454;-70
2023/01/17 05:50:16;;;;;;;0.20;0.20;;;;;;;;;;5074455;28;20230;-70
2023/01/17 05:52:48;;;;;;;0.20;0.20;;;;;;;;;;5084137;28;20243;-70
2023/01/17 05:55:15;;;;;;;0.20;0.20;;;;;;;;;;5074383;28;20284;-70
2023/01/17 05:57:41;;;;;;;0.20;0.20;;;;;;;;;;5083985;28;20277;-70
2023/01/17 06:00:08;;;;;;;0.20;0.20;;;;;;;;;;5085033;28;20371;-69
2023/01/17 06:02:34;;;;;;;0.27;0.27;;;;;;;;;;5073398;28;20320;-69
2023/01/17 06:05:01;;;;;;;0.20;0.20;;;;;;;;;;5085006;28;20199;-69
2023/01/17 06:07:27;;;;;;;0.20;0.20;;;;;;;;;;5073234;28;20414;-69
2023/01/17 06:09:55;;;;;;;0.20;0.20;;;;;;;;;;5084784;28;20244;-69
2023/01/17 06:12:21;;;;;;;0.20;0.20;;;;;;;;;;5073156;28;20258;-70
2023/01/17 06:14:47;;;;;;;0.20;0.20;;;;;;;;;;5084318;28;20293;-70
2023/01/17 06:17:14;;;;;;;0.20;0.20;;;;;;;;;;5073186;28;20261;-70
2023/01/17 06:19:40;;;;;;;0.23;0.23;;;;;;;;;;5084363;28;20242;-70
2023/01/17 06:22:06;;;;;;;0.20;0.20;;;;;;;;;;5072944;28;20248;-69
2023/01/17 06:24:33;;;;;;;0.20;0.20;;;;;;;;;;5084150;28;20225;-69
2023/01/17 06:27:01;;;;;;;0.20;0.20;;;;;;;;;;5072825;28;20245;-70
2023/01/17 06:29:27;;;;;;;0.20;0.20;;;;;;;;;;5084007;28;20385;-69
2023/01/17 06:31:54;;;;;;;0.20;0.20;;;;;;;;;;5072870;28;20317;-70
2023/01/17 06:34:20;;;;;;;0.20;0.20;;;;;;;;;;5083803;28;20280;-70
2023/01/17 06:36:46;;;;;;;0.20;0.20;;;;;;;;;;5072934;28;20247;-70
2023/01/17 06:39:13;;;;;;;0.30;0.30;;;;;;;;;;5083805;28;20267;-71
2023/01/17 06:41:39;;;;;;;0.20;0.20;;;;;;;;;;5072806;28;20422;-68
2023/01/17 06:44:08;;;;;;;0.33;0.33;;;;;;;;;;5083950;28;20237;-69
2023/01/17 06:46:35;;;;;;;0.20;0.20;;;;;;;;;;5072796;28;20564;-69
2023/01/17 06:49:01;;;;;;;0.20;0.20;;;;;;;;;;5083952;28;20556;-69
2023/01/17 06:51:27;;;;;;;0.20;0.20;;;;;;;;;;5072757;28;20276;-69
2023/01/17 06:53:54;;;;;;;0.20;0.20;;;;;;;;;;5083209;28;20206;-69
2023/01/17 06:56:20;;;;;;;0.20;0.20;;;;;;;;;;5072829;28;20312;-70
2023/01/17 06:58:48;;;;;;;0.20;0.20;;;;;;;;;;5083622;28;20210;-70
2023/01/17 07:01:16;;;;;;;0.20;0.20;;;;;;;;;;5072679;28;20326;-70
2023/01/17 07:03:42;;;;;;;0.20;0.20;;;;;;;;;;5083187;28;20270;-69
2023/01/17 07:06:09;;;;;;;0.20;0.20;;;;;;;;;;5072704;28;20406;-69
2023/01/17 07:08:36;;;;;;;0.23;0.23;;;;;;;;;;5083074;28;20242;-69
2023/01/17 07:11:03;;;;;;;0.20;0.20;;;;;;;;;;5072762;28;20308;-69
2023/01/17 07:13:30;;;;;;;0.20;0.20;;;;;;;;;;5082913;28;20208;-70
2023/01/17 07:15:59;;;;;;;0.37;0.37;;;;;;;;;;5072794;28;20241;-70
2023/01/17 07:18:27;;;;;;;0.30;0.30;;;;;;;;;;5082912;28;20213;-70
2023/01/17 07:20:54;;;;;;;0.63;0.63;;;;;;;;;;5072562;28;20347;-70
2023/01/17 07:23:21;;;;;;;0.20;0.20;;;;;;;;;;5082820;28;20205;-70
2023/01/17 07:25:51;;;;;;;0.30;0.30;;;;;;;;;;5072625;28;20248;-70
2023/01/17 07:28:17;;;;;;;0.37;0.37;;;;;;;;;;5082627;28;20214;-70
2023/01/17 07:30:44;;;;;;;0.20;0.20;;;;;;;;;;5072767;28;20311;-70
2023/01/17 07:33:10;;;;;;;0.30;0.30;;;;;;;;;;5082886;28;20433;-70
2023/01/17 07:35:38;;;;;;;0.43;0.43;;;;;;;;;;5072531;28;20242;-70
2023/01/17 07:38:10;;;;;;;0.20;0.20;;;;;;;;;;5082372;28;20236;-69
2023/01/17 07:40:36;;;;;;;0.30;0.30;;;;;;;;;;5072527;28;20263;-69
2023/01/17 07:43:11;;;;;;;0.30;0.30;;;;;;;;;;5082557;28;20245;-69
2023/01/17 07:45:40;;;;;;;0.30;0.30;;;;;;;;;;5072825;28;20241;-70
2023/01/17 07:48:06;;;;;;;0.20;0.20;;;;;;;;;;5082763;28;20273;-69
2023/01/17 07:50:33;;;;;;;0.30;0.30;;;;;;;;;;5072898;28;20305;-70
2023/01/17 07:53:00;;;;;;;0.20;0.20;;;;;;;;;;5082490;28;20232;-69
2023/01/17 07:55:27;;;;;;;0.20;0.20;;;;;;;;;;5072854;28;20527;-69
2023/01/17 07:57:56;;;;;;;0.50;0.50;;;;;;;;;;5082460;28;20217;-70
2023/01/17 08:00:25;;;;;;;1.03;1.03;;;;;;;;;;5072907;28;20267;-69
2023/01/17 08:02:55;;;;;;;0.20;0.20;;;;;;;;;;5082318;28;20205;-75
2023/01/17 08:05:21;;;;;;;1.17;1.17;;;;;;;;;;5075051;28;20272;-69
2023/01/17 08:07:48;;;;;;;0.30;0.30;;;;;;;;;;5086398;28;20247;-71
2023/01/17 08:10:16;;;;;;;0.20;0.20;;;;;;;;;;5076379;28;20269;-70
2023/01/17 08:12:43;;;;;;;0.47;0.47;;;;;;;;;;5086001;28;20228;-70
2023/01/17 08:15:10;;;;;;;0.20;0.20;;;;;;;;;;5076643;28;20296;-70
2023/01/17 08:17:36;;;;;;;0.20;0.20;;;;;;;;;;5085880;28;20205;-70
2023/01/17 08:20:04;;;;;;;0.40;0.40;;;;;;;;;;5087058;28;20233;-69
2023/01/17 08:22:31;;;;;;;0.43;0.40;;;;;;;;;;5075528;28;20244;-69
2023/01/17 08:25:00;;;;;;;0.20;0.20;;;;;;;;;;5086980;28;20240;-69
2023/01/17 08:27:29;;;;;;;0.20;0.20;;;;;;;;;;5075011;28;20260;-70
2023/01/17 08:29:55;;;;;;;0.50;0.50;;;;;;;;;;5086783;28;20214;-70
2023/01/17 08:32:22;;;;;;;0.20;0.20;;;;;;;;;;5075166;28;20316;-70
2023/01/17 08:34:48;;;;;;;0.27;0.27;;;;;;;;;;5086645;28;20238;-70
2023/01/17 08:37:15;;;;;;;0.37;0.37;;;;;;;;;;5075134;28;20306;-70
2023/01/17 08:39:41;;;;;;;0.20;0.20;;;;;;;;;;5086690;28;20207;-71
2023/01/17 08:42:07;;;;;;;0.20;0.20;;;;;;;;;;5075002;28;20259;-71
2023/01/17 08:44:35;;;;;;;0.20;0.20;;;;;;;;;;5086327;28;20203;-70
2023/01/17 08:47:01;;;;;;;0.50;0.50;;;;;;;;;;5075088;28;20260;-72
2023/01/17 08:49:28;;;;;;;0.20;0.20;;;;;;;;;;5086432;28;20238;-70
2023/01/17 08:51:54;;;;;;;0.20;0.20;;;;;;;;;;5074877;28;20313;-71
2023/01/17 08:54:21;;;;;;;0.30;0.30;;;;;;;;;;5086314;28;20273;-72
2023/01/17 08:56:48;;;;;;;0.20;0.20;;;;;;;;;;5074769;28;20268;-71
2023/01/17 08:59:14;;;;;;;0.20;0.20;;;;;;;;;;5086168;28;20510;-71
2023/01/17 09:01:44;;;;;;;0.20;0.20;;;;;;;;;;5074977;28;20588;-70
2023/01/17 09:04:11;;;;;;;0.20;0.20;;;;;;;;;;5085978;28;20509;-71
2023/01/17 09:06:38;;;;;;;0.20;0.20;;;;;;;;;;5074679;28;20244;-71
2023/01/17 09:09:06;;;;;;;0.27;0.27;;;;;;;;;;5085977;28;20214;-71
2023/01/17 09:11:32;;;;;;;0.53;0.53;;;;;;;;;;5074878;28;20310;-70
2023/01/17 09:14:00;;;;;;;0.20;0.20;;;;;;;;;;5085837;28;20404;-70
2023/01/17 09:16:27;;;;;;;3.40;1.37;;;;;;;;;;5074441;28;20242;-71
2023/01/17 09:18:55;;;;;;;0.30;0.30;;;;;;;;;;5085675;28;20212;-70
2023/01/17 09:21:21;;;;;;;0.20;0.20;;;;;;;;;;5074724;28;20253;-71
2023/01/17 09:23:48;;;;;;;0.20;0.20;;;;;;;;;;5085547;28;20273;-71
2023/01/17 09:26:17;;;;;;;0.20;0.20;;;;;;;;;;5074753;28;20568;-70
2023/01/17 09:28:44;;;;;;;1.07;0.73;;;;;;;;;;5085022;28;20221;-72
2023/01/17 09:31:10;;;;;;;0.20;0.20;;;;;;;;;;5074605;28;20557;-73
2023/01/17 09:33:41;;;;;;;0.80;0.80;;;;;;;;;;5085234;28;20509;-74
2023/01/17 09:36:11;;;;;;;0.20;0.20;;;;;;;;;;5074732;28;20253;-75
2023/01/17 09:38:37;;;;;;;0.20;0.20;;;;;;;;;;5085093;28;20250;-73
2023/01/17 09:41:12;;;;;;;1.70;1.27;;;;;;;;;;5074384;28;20254;-71
2023/01/17 09:43:42;;;;;;;0.20;0.20;;;;;;;;;;5085298;28;20194;-72
2023/01/17 09:46:14;;;;;;;0.20;0.20;;;;;;;;;;5074229;28;20237;-73
2023/01/17 09:48:41;;;;;;;0.30;0.30;;;;;;;;;;5084621;28;20199;-72
2023/01/17 09:51:13;;;;;;;0.20;0.20;;;;;;;;;;5074165;28;20568;-72
2023/01/17 09:53:40;;;;;;;0.10;0.10;;;;;;;;;;5084600;28;20200;-71
2023/01/17 09:56:10;;;;;;;0.33;0.20;;;;;;;;;;5074125;28;20299;-73
2023/01/17 09:58:41;;;;;;;0.30;0.30;;;;;;;;;;5084458;28;20231;-72
2023/01/17 10:01:13;;;;;;;0.10;0.10;;;;;;;;;;5074092;28;20586;-72
2023/01/17 10:03:45;;;;;;;2.43;2.23;;;;;;;;;;5084337;28;20536;-73
2023/01/17 10:06:19;;;;;;;0.10;0.10;;;;;;;;;;5073891;28;20480;-73
2023/01/17 10:08:54;;;;;;;0.10;0.10;;;;;;;;;;5084219;28;20227;-74
2023/01/17 10:11:29;;;;;;;0.13;0.13;;;;;;;;;;5073699;28;20473;-74
2023/01/17 10:14:00;;;;;;;0.17;0.17;;;;;;;;;;5084269;28;20183;-73
2023/01/17 10:16:33;;;;;;;0.10;0.10;;;;;;;;;;5073359;28;20231;-73
2023/01/17 10:19:12;;;;;;;0.10;0.10;;;;;;;;;;5084242;28;20423;-73
2023/01/17 10:21:49;;;;;;;0.10;0.10;;;;;;;;;;5073157;28;20254;-72
2023/01/17 10:24:24;;;;;;;0.10;0.10;;;;;;;;;;5084023;28;20193;-73
2023/01/17 10:26:53;;;;;;;0.10;0.10;;;;;;;;;;5072375;28;20264;-73
2023/01/17 10:29:20;;;;;;;0.40;0.40;;;;;;;;;;5084300;28;20197;-73
2023/01/17 10:31:50;;;;;;;0.10;0.10;;;;;;;;;;5072910;28;20268;-74
2023/01/17 10:34:18;;;;;;;0.77;0.57;;;;;;;;;;5084224;28;20211;-74
2023/01/17 10:36:49;;;;;;;0.10;0.10;;;;;;;;;;5072827;28;20423;-73
2023/01/17 10:39:19;;;;;;;0.13;0.13;;;;;;;;;;5084172;28;20192;-74
2023/01/17 10:41:47;;;;;;;0.10;0.10;;;;;;;;;;5072836;28;20310;-73
2023/01/17 10:44:18;;;;;;;0.30;0.30;;;;;;;;;;5083769;28;20548;-72
2023/01/17 10:46:47;;;;;;;0.10;0.10;;;;;;;;;;5072696;28;20236;-73
2023/01/17 10:49:15;;;;;;;0.20;0.20;;;;;;;;;;5083687;28;20203;-73
2023/01/17 10:51:58;;;;;;;0.20;0.20;;;;;;;;;;5072597;28;20449;-74
2023/01/17 10:54:37;;;;;;;0.17;0.17;;;;;;;;;;5074495;28;20396;-73
2023/01/17 10:57:03;;;;;;;0.20;0.20;;;;;;;;;;5072502;28;20239;-73
2023/01/17 10:59:31;;;;;;;0.20;0.20;;;;;;;;;;5083735;28;20210;-74
2023/01/17 11:01:57;;;;;;;0.10;0.10;;;;;;;;;;5072524;28;20582;-74
2023/01/17 11:04:34;;;;;;;0.20;0.20;;;;;;;;;;5083906;28;20246;-72
2023/01/17 11:07:11;;;;;;;0.10;0.10;;;;;;;;;;5072489;28;20288;-74
2023/01/17 11:09:40;;;;;;;0.10;0.10;;;;;;;;;;5083647;28;20209;-74
2023/01/17 11:12:15;;;;;;;0.20;0.20;;;;;;;;;;5072389;28;20255;-73
2023/01/17 11:14:48;;;;;;;0.20;0.20;;;;;;;;;;5083843;28;20376;-73
2023/01/17 11:17:19;;;;;;;0.10;0.10;;;;;;;;;;5072135;28;20263;-74
2023/01/17 11:19:50;;;;;;;0.20;0.20;;;;;;;;;;5083582;28;20192;-74
2023/01/17 11:22:16;;;;;;;0.50;0.50;;;;;;;;;;5072299;28;20555;-73
2023/01/17 11:24:49;;;;;;;0.20;0.20;;;;;;;;;;5083802;28;20275;-74
2023/01/17 11:27:23;;;;;;;0.23;0.23;;;;;;;;;;5072086;28;20427;-77
2023/01/17 11:30:01;;;;;;;0.20;0.20;;;;;;;;;;5083332;28;20468;-73
2023/01/17 11:32:29;;;;;;;0.27;0.20;;;;;;;;;;5072112;28;20484;-74
2023/01/17 11:35:07;;;;;;;0.10;0.10;;;;;;;;;;5083643;28;20205;-74
2023/01/17 11:37:34;;;;;;;0.10;0.10;;;;;;;;;;5071983;28;20248;-71
2023/01/17 11:40:08;;;;;;;0.27;0.27;;;;;;;;;;5085485;28;20206;-72
2023/01/17 11:42:35;;;;;;;0.10;0.10;;;;;;;;;;5076403;28;20209;-72
2023/01/17 11:45:22;;;;;;;0.10;0.10;;;;;;;;;;5087536;28;20210;-73
2023/01/17 11:47:48;;;;;;;1.23;0.70;;;;;;;;;;5087031;28;20192;-72
2023/01/17 11:50:23;;;;;;;0.10;0.10;;;;;;;;;;5076800;28;20276;-72
2023/01/17 11:52:49;;;;;;;0.10;0.10;;;;;;;;;;5086568;28;20278;-72
2023/01/17 11:55:21;;;;;;;0.10;0.10;;;;;;;;;;5077024;28;20228;-72
2023/01/17 11:57:52;;;;;;;0.20;0.20;;;;;;;;;;5086168;28;20332;-72
2023/01/17 12:00:22;;;;;;;0.10;0.10;;;;;;;;;;5076642;28;20195;-72
2023/01/17 12:03:02;;;;;;;0.10;0.10;;;;;;;;;;5086035;28;20234;-72
2023/01/17 12:05:40;;;;;;;0.10;0.10;;;;;;;;;;5076710;28;20565;-71
2023/01/17 12:08:09;;;;;;;0.10;0.10;;;;;;;;;;5086441;28;20442;-71
2023/01/17 12:10:42;;;;;;;0.10;0.10;;;;;;;;;;5076405;28;20271;-73
2023/01/17 12:18:45;;;;;;;0.10;0.10;;;;;;;;;;5076483;28;20400;-72
2023/01/17 12:21:15;;;;;;;0.10;0.10;;;;;;;;;;5075867;28;20257;-72
2023/01/17 12:23:51;;;;;;;0.10;0.10;;;;;;;;;;5086189;28;20254;-71
2023/01/17 12:26:26;;;;;;;0.10;0.10;;;;;;;;;;5075714;28;20308;-72
2023/01/17 12:29:04;;;;;;;0.10;0.10;;;;;;;;;;5086067;28;20199;-71
2023/01/17 12:31:32;;;;;;;0.20;0.20;;;;;;;;;;5075382;28;20487;-72
2023/01/17 12:34:02;;;;;;;1.50;0.87;;;;;;;;;;5086366;28;20532;-71
2023/01/17 12:36:35;;;;;;;0.10;0.10;;;;;;;;;;5075436;28;20309;-72
2023/01/17 12:39:02;;;;;;;0.20;0.20;;;;;;;;;;5086372;28;20220;-72
2023/01/17 12:41:32;;;;;;;0.10;0.10;;;;;;;;;;5075107;28;20528;-72
2023/01/17 12:43:59;;;;;;;0.10;0.10;;;;;;;;;;5086210;28;20245;-72
2023/01/17 12:46:27;;;;;;;0.10;0.10;;;;;;;;;;5075220;28;20252;-72
2023/01/17 12:48:55;;;;;;;0.10;0.10;;;;;;;;;;5085841;28;20206;-71
2023/01/17 12:51:26;;;;;;;0.30;0.30;;;;;;;;;;5074494;28;20241;-72
2023/01/17 12:53:57;;;;;;;0.10;0.10;;;;;;;;;;5085802;28;20244;-71
2023/01/17 12:56:27;;;;;;;0.10;0.10;;;;;;;;;;5074890;28;20240;-72
2023/01/17 12:59:00;;;;;;;0.10;0.10;;;;;;;;;;5085710;28;20275;-72
2023/01/17 13:01:29;;;;;;;0.10;0.10;;;;;;;;;;5074789;28;20311;-72
2023/01/17 13:04:03;;;;;;;0.10;0.10;;;;;;;;;;5085593;28;20205;-71
2023/01/17 13:06:45;;;;;;;1.17;0.53;;;;;;;;;;5074840;28;20280;-71
2023/01/17 13:09:13;;;;;;;0.10;0.10;;;;;;;;;;5085624;28;20233;-73
2023/01/17 13:11:45;;;;;;;0.30;0.30;;;;;;;;;;5074558;28;20528;-73
2023/01/17 13:14:13;;;;;;;0.20;0.20;;;;;;;;;;5085563;28;20237;-73
2023/01/17 13:16:40;;;;;;;0.10;0.10;;;;;;;;;;5074378;28;20249;-72
2023/01/17 13:19:11;;;;;;;0.20;0.20;;;;;;;;;;5085296;28;20211;-73
2023/01/17 13:21:37;;;;;;;0.20;0.20;;;;;;;;;;5074715;28;20482;-73
2023/01/17 13:24:22;;;;;;;0.10;0.10;;;;;;;;;;5085566;28;20508;-72
2023/01/17 13:26:57;;;;;;;0.10;0.10;;;;;;;;;;5074244;28;20242;-72
2023/01/17 13:29:34;;;;;;;0.20;0.20;;;;;;;;;;5085257;28;20238;-73
2023/01/17 13:32:06;;;;;;;0.10;0.10;;;;;;;;;;5074112;28;20239;-73
2023/01/17 13:34:47;;;;;;;0.20;0.20;;;;;;;;;;5085363;28;20199;-72
2023/01/17 13:37:31;;;;;;;0.20;0.20;;;;;;;;;;5056688;28;20239;-72
2023/01/17 13:40:17;;;;;;;0.10;0.10;;;;;;;;;;5065224;28;20192;-72
2023/01/17 13:42:52;;;;;;;0.10;0.10;;;;;;;;;;5065301;28;20196;-71
2023/01/17 13:45:21;;;;;;;0.10;0.10;;;;;;;;;;5057925;28;20223;-72
2023/01/17 13:47:47;;;;;;;0.10;0.10;;;;;;;;;;5093768;28;20515;-73
2023/01/17 13:50:32;;;;;;;0.20;0.20;;;;;;;;;;5056517;28;20204;-72
2023/01/17 13:52:59;;;;;;;0.20;0.20;;;;;;;;;;5090371;28;20220;-71
2023/01/17 13:55:44;;;;;;;0.20;0.20;;;;;;;;;;5059285;28;20253;-72
2023/01/17 13:58:25;;;;;;;0.13;0.13;;;;;;;;;;5086863;28;20231;-72
2023/01/17 14:00:53;;;;;;;0.20;0.20;;;;;;;;;;5066217;28;20237;-72
2023/01/17 14:03:39;;;;;;;0.20;0.20;;;;;;;;;;5084011;28;20275;-73
2023/01/17 14:06:27;;;;;;;0.20;0.20;;;;;;;;;;5069821;28;20247;-72
2023/01/17 14:08:53;;;;;;;0.20;0.20;;;;;;;;;;5075307;28;20204;-72
2023/01/17 14:11:20;;;;;;;0.10;0.10;;;;;;;;;;5073684;28;20427;-72
2023/01/17 14:13:50;;;;;;;0.20;0.20;;;;;;;;;;5077033;28;20204;-72
2023/01/17 14:16:26;;;;;;;0.20;0.20;;;;;;;;;;5072865;28;20423;-72
2023/01/17 14:18:53;;;;;;;0.40;0.40;;;;;;;;;;5075442;28;20216;-72
2023/01/17 14:21:21;;;;;;;0.17;0.17;;;;;;;;;;5073581;28;20303;-72
2023/01/17 14:23:59;;;;;;;0.20;0.20;;;;;;;;;;5076848;28;20388;-74
2023/01/17 14:26:28;;;;;;;0.40;0.40;;;;;;;;;;5074924;28;20556;-72
2023/01/17 14:28:55;;;;;;;0.20;0.20;;;;;;;;;;5074777;28;20216;-71
2023/01/17 14:31:23;;;;;;;0.10;0.10;;;;;;;;;;5073612;28;20306;-72
2023/01/17 14:33:50;;;;;;;0.20;0.20;;;;;;;;;;5076261;28;20238;-73
2023/01/17 14:36:23;;;;;;;0.20;0.20;;;;;;;;;;5072526;28;20249;-73
2023/01/17 14:38:50;;;;;;;0.20;0.20;;;;;;;;;;5075918;28;20211;-72
2023/01/17 14:41:19;;;;;;;0.20;0.20;;;;;;;;;;5071963;28;20258;-72
2023/01/17 14:43:46;;;;;;;0.20;0.20;;;;;;;;;;5076721;28;20207;-72
2023/01/17 14:46:17;;;;;;;0.20;0.20;;;;;;;;;;5071342;28;20332;-72
2023/01/17 14:48:44;;;;;;;0.90;0.90;;;;;;;;;;5077584;28;20202;-73
2023/01/17 14:51:14;;;;;;;0.20;0.20;;;;;;;;;;5070602;28;20238;-72
2023/01/17 14:53:51;;;;;;;0.20;0.20;;;;;;;;;;5078285;28;20206;-72
2023/01/17 14:56:18;;;;;;;0.20;0.20;;;;;;;;;;5072286;28;20249;-72
2023/01/17 14:58:45;;;;;;;0.20;0.20;;;;;;;;;;5076785;28;20236;-72
2023/01/17 15:01:13;;;;;;;0.20;0.20;;;;;;;;;;5070379;28;20241;-73
2023/01/17 15:03:43;;;;;;;0.20;0.20;;;;;;;;;;5078360;28;20227;-72
2023/01/17 15:06:16;;;;;;;0.20;0.20;;;;;;;;;;5069858;28;20238;-72
2023/01/17 15:08:43;;;;;;;0.20;0.20;;;;;;;;;;5077577;28;20231;-71
2023/01/17 15:11:10;;;;;;;0.20;0.20;;;;;;;;;;5069957;28;20250;-72
2023/01/17 15:13:38;;;;;;;0.20;0.20;;;;;;;;;;5078526;28;20281;-72
2023/01/17 15:16:06;;;;;;;0.20;0.20;;;;;;;;;;5068677;28;20268;-72
2023/01/17 15:18:35;;;;;;;0.20;0.20;;;;;;;;;;5080235;28;20295;-72
2023/01/17 15:21:02;;;;;;;0.30;0.30;;;;;;;;;;5067508;28;20625;-72
2023/01/17 15:23:33;;;;;;;0.20;0.20;;;;;;;;;;5080868;28;20271;-72
2023/01/17 15:26:00;;;;;;;0.10;0.10;;;;;;;;;;5066829;28;20283;-72
2023/01/17 15:28:27;;;;;;;0.17;0.17;;;;;;;;;;5081201;28;20208;-71
2023/01/17 15:31:00;;;;;;;0.20;0.20;;;;;;;;;;5065466;28;20448;-72
2023/01/17 15:33:27;;;;;;;0.20;0.20;;;;;;;;;;5081462;28;20515;-72
2023/01/17 15:35:58;;;;;;;0.20;0.20;;;;;;;;;;5065565;28;20416;-72
2023/01/17 15:38:25;;;;;;;0.20;0.20;;;;;;;;;;5082028;28;20303;-72
2023/01/17 15:40:53;;;;;;;0.20;0.20;;;;;;;;;;5065030;28;20238;-72
2023/01/17 15:43:20;;;;;;;0.20;0.20;;;;;;;;;;5083600;28;20254;-72
2023/01/17 15:45:54;;;;;;;0.20;0.20;;;;;;;;;;5063614;28;20245;-72
2023/01/17 15:48:43;;;;;;;0.20;0.20;;;;;;;;;;5082744;28;20230;-72
2023/01/17 15:51:10;;;;;;;0.20;0.20;;;;;;;;;;5066613;28;20242;-72
2023/01/17 15:53:38;;;;;;;0.20;0.20;;;;;;;;;;5078396;28;20230;-73
2023/01/17 15:56:27;;;;;;;0.20;0.20;;;;;;;;;;5068371;28;20318;-74
2023/01/17 15:58:53;;;;;;;0.10;0.10;;;;;;;;;;5074081;28;20249;-72
2023/01/17 16:01:23;;;;;;;0.20;0.20;;;;;;;;;;5072430;28;20285;-73
2023/01/17 16:03:54;;;;;;;1.60;1.60;;;;;;;;;;5074787;28;20277;-73
2023/01/17 16:06:35;;;;;;;0.20;0.20;;;;;;;;;;5072283;28;20284;-73
2023/01/17 16:09:03;;;;;;;0.20;0.20;;;;;;;;;;5071975;28;20435;-74
2023/01/17 16:11:31;;;;;;;0.20;0.20;;;;;;;;;;5074791;28;20254;-73
2023/01/17 16:13:57;;;;;;;0.20;0.20;;;;;;;;;;5073145;28;20242;-72
2023/01/17 16:16:25;;;;;;;0.10;0.10;;;;;;;;;;5073310;28;20253;-74
2023/01/17 16:18:55;;;;;;;0.20;0.20;;;;;;;;;;5074160;28;20227;-72